createdAt,value
2018-06-23T00:01:13.155Z,4.93
2018-06-23T00:03:41.351Z,3.73
2018-06-23T00:06:09.724Z,3.60
2018-06-23T00:08:38.161Z,3.67
2018-06-23T00:11:06.398Z,4.30
2018-06-23T00:13:34.575Z,4.30
2018-06-23T00:16:02.868Z,3.33
2018-06-23T00:18:31.270Z,4.08
2018-06-23T00:20:59.417Z,3.13
2018-06-23T00:23:27.834Z,5.97
2018-06-23T00:26:01.422Z,3.30
2018-06-23T00:28:29.602Z,3.70
2018-06-23T00:30:57.753Z,3.50
2018-06-23T00:33:25.899Z,4.90
2018-06-23T00:35:54.079Z,5.80
2018-06-23T00:38:22.201Z,5.23
2018-06-23T00:40:50.329Z,6.50
2018-06-23T00:43:18.479Z,3.50
2018-06-23T00:45:46.635Z,5.90
2018-06-23T00:48:14.786Z,6.00
2018-06-23T00:50:42.960Z,3.80
2018-06-23T00:53:11.293Z,3.37
2018-06-23T00:55:39.647Z,3.62
2018-06-23T00:58:08.070Z,3.50
2018-06-23T01:00:36.309Z,4.07
2018-06-23T01:03:04.486Z,3.67
2018-06-23T01:05:32.657Z,4.13
2018-06-23T01:08:00.793Z,3.73
2018-06-23T01:10:28.965Z,5.00
2018-06-23T01:12:57.099Z,5.73
2018-06-23T01:15:25.265Z,3.67
2018-06-23T01:17:53.439Z,3.43
2018-06-23T01:20:21.609Z,3.83
2018-06-23T01:22:49.785Z,3.97
2018-06-23T01:25:17.949Z,4.67
2018-06-23T01:27:46.078Z,4.97
2018-06-23T01:30:14.323Z,4.83
2018-06-23T01:32:42.469Z,5.12
2018-06-23T01:35:10.626Z,4.95
2018-06-23T01:37:38.963Z,3.40
2018-06-23T01:40:07.093Z,3.80
2018-06-23T01:42:35.227Z,3.87
2018-06-23T01:45:03.414Z,3.57
2018-06-23T01:47:31.571Z,3.63
2018-06-23T01:49:59.711Z,4.57
2018-06-23T01:52:27.991Z,6.17
2018-06-23T01:54:56.145Z,5.33
2018-06-23T01:57:24.262Z,3.10
2018-06-23T01:59:52.438Z,3.35
2018-06-23T02:02:20.614Z,6.58
2018-06-23T02:04:48.778Z,5.20
2018-06-23T02:07:17.034Z,3.73
2018-06-23T02:09:45.219Z,5.35
2018-06-23T02:12:13.413Z,4.80
2018-06-23T02:15:12.111Z,6.23
2018-06-23T02:17:45.556Z,3.92
2018-06-23T02:20:19.171Z,3.92
2018-06-23T02:22:52.655Z,5.53
2018-06-23T02:25:26.009Z,5.57
2018-06-23T02:27:59.449Z,3.30
2018-06-23T02:32:35.900Z,2.80
2018-06-23T02:35:07.326Z,3.60
2018-06-23T02:37:37.400Z,4.03
2018-06-23T02:40:05.614Z,5.72
2018-06-23T02:42:34.001Z,5.27
2018-06-23T02:45:02.274Z,6.00
2018-06-23T02:47:30.422Z,5.55
2018-06-23T02:50:00.234Z,4.15
2018-06-23T02:52:29.574Z,4.92
2018-06-23T02:54:57.765Z,3.90
2018-06-23T02:57:25.875Z,4.55
2018-06-23T02:59:54.054Z,3.83
2018-06-23T03:02:22.230Z,5.00
2018-06-23T03:04:50.401Z,4.95
2018-06-23T03:07:18.566Z,6.20
2018-06-23T03:09:46.718Z,6.58
2018-06-23T03:12:14.854Z,6.92
2018-06-23T03:14:43.081Z,5.60
2018-06-23T03:17:15.100Z,5.70
2018-06-23T03:19:44.138Z,4.87
2018-06-23T03:22:12.262Z,4.53
2018-06-23T03:24:40.433Z,3.95
2018-06-23T03:27:08.822Z,4.77
2018-06-23T03:29:37.165Z,5.37
2018-06-23T03:32:05.429Z,8.10
2018-06-23T03:34:33.649Z,4.83
2018-06-23T03:37:01.810Z,5.00
2018-06-23T03:39:29.999Z,6.10
2018-06-23T03:41:58.134Z,7.33
2018-06-23T03:44:26.280Z,4.00
2018-06-23T03:46:54.666Z,4.90
2018-06-23T03:49:22.809Z,6.83
2018-06-23T03:51:51.055Z,6.95
2018-06-23T03:54:19.217Z,3.62
2018-06-23T03:56:47.461Z,6.22
2018-06-23T03:59:15.593Z,5.03
2018-06-23T04:01:43.762Z,5.30
2018-06-23T04:04:11.914Z,6.95
2018-06-23T04:06:40.069Z,6.00
2018-06-23T04:09:09.646Z,5.80
2018-06-23T04:11:38.092Z,4.22
2018-06-23T04:14:06.278Z,5.30
2018-06-23T04:16:34.442Z,3.83
2018-06-23T04:19:02.593Z,5.42
2018-06-23T04:21:31.230Z,4.92
2018-06-23T04:23:59.724Z,5.40
2018-06-23T04:26:28.471Z,3.47
2018-06-23T04:28:56.852Z,3.45
2018-06-23T04:31:24.992Z,5.87
2018-06-23T04:33:53.195Z,5.03
2018-06-23T04:36:21.377Z,6.95
2018-06-23T04:38:49.569Z,5.15
2018-06-23T04:41:17.718Z,5.97
2018-06-23T04:43:45.848Z,6.05
2018-06-23T04:46:14.007Z,8.08
2018-06-23T04:48:42.170Z,7.00
2018-06-23T04:51:10.362Z,2.83
2018-06-23T04:53:42.098Z,6.42
2018-06-23T04:56:10.274Z,5.35
2018-06-23T04:58:38.517Z,6.47
2018-06-23T05:01:06.685Z,8.50
2018-06-23T05:03:34.963Z,7.05
2018-06-23T05:06:03.302Z,4.35
2018-06-23T05:08:31.533Z,6.75
2018-06-23T05:10:59.717Z,8.05
2018-06-23T05:13:27.873Z,6.12
2018-06-23T05:15:56.034Z,7.62
2018-06-23T05:18:24.180Z,8.23
2018-06-23T05:20:52.350Z,4.00
2018-06-23T05:23:20.485Z,4.92
2018-06-23T05:25:48.650Z,7.55
2018-06-23T05:28:16.793Z,7.05
2018-06-23T05:30:44.948Z,6.90
2018-06-23T05:33:13.618Z,8.53
2018-06-23T05:35:41.757Z,5.47
2018-06-23T05:38:09.923Z,11.70
2018-06-23T05:40:38.118Z,5.28
2018-06-23T05:43:06.553Z,8.05
2018-06-23T05:45:34.921Z,7.53
2018-06-23T05:48:03.076Z,10.72
2018-06-23T05:50:31.239Z,7.12
2018-06-23T05:52:59.383Z,6.70
2018-06-23T05:55:27.746Z,5.95
2018-06-23T05:57:55.917Z,5.90
2018-06-23T06:00:24.177Z,7.45
2018-06-23T06:02:52.826Z,6.45
2018-06-23T06:05:20.991Z,8.15
2018-06-23T06:07:49.222Z,7.83
2018-06-23T06:10:17.351Z,7.17
2018-06-23T06:12:45.521Z,7.87
2018-06-23T06:15:13.762Z,7.80
2018-06-23T06:17:42.188Z,7.25
2018-06-23T06:20:11.374Z,9.13
2018-06-23T06:22:41.800Z,6.85
2018-06-23T06:25:10.493Z,10.15
2018-06-23T06:27:38.946Z,7.17
2018-06-23T06:30:09.147Z,7.30
2018-06-23T06:32:37.342Z,9.00
2018-06-23T06:35:05.774Z,14.63
2018-06-23T06:37:33.957Z,9.30
2018-06-23T06:40:02.502Z,8.75
2018-06-23T06:42:30.677Z,11.40
2018-06-23T06:44:58.825Z,12.43
2018-06-23T06:47:26.977Z,10.90
2018-06-23T06:49:55.169Z,11.85
2018-06-23T06:52:23.402Z,8.27
2018-06-23T06:54:51.750Z,6.40
2018-06-23T06:57:20.121Z,14.70
2018-06-23T06:59:48.684Z,9.60
2018-06-23T07:02:17.959Z,9.17
2018-06-23T07:04:46.485Z,8.95
2018-06-23T07:07:15.331Z,10.28
2018-06-23T07:09:43.522Z,8.33
2018-06-23T07:12:11.663Z,7.53
2018-06-23T07:14:39.823Z,6.72
2018-06-23T07:17:08.043Z,10.60
2018-06-23T07:19:36.353Z,10.00
2018-06-23T07:22:04.498Z,6.85
2018-06-23T07:24:32.638Z,9.23
2018-06-23T07:27:00.883Z,9.25
2018-06-23T07:29:29.058Z,7.50
2018-06-23T07:32:13.252Z,6.10
2018-06-23T07:34:41.592Z,12.47
2018-06-23T07:37:10.011Z,9.98
2018-06-23T07:39:38.206Z,9.83
2018-06-23T07:42:06.558Z,8.63
2018-06-23T07:44:34.894Z,11.57
2018-06-23T07:47:03.071Z,15.03
2018-06-23T07:49:33.827Z,11.48
2018-06-23T07:52:02.436Z,11.25
2018-06-23T07:54:30.600Z,9.25
2018-06-23T07:56:58.822Z,8.03
2018-06-23T07:59:28.187Z,8.25
2018-06-23T08:01:56.750Z,7.92
2018-06-23T08:04:25.868Z,10.40
2018-06-23T08:06:54.035Z,8.65
2018-06-23T08:09:22.174Z,15.63
2018-06-23T08:11:50.397Z,9.38
2018-06-23T08:14:18.501Z,10.43
2018-06-23T08:16:46.681Z,35.30
2018-06-23T08:19:14.804Z,21.48
2018-06-23T08:21:43.295Z,20.72
2018-06-23T08:24:11.455Z,15.68
2018-06-23T08:26:39.772Z,14.00
2018-06-23T08:29:07.922Z,13.83
2018-06-23T08:31:36.173Z,11.43
2018-06-23T08:34:04.329Z,13.93
2018-06-23T08:36:32.476Z,8.95
2018-06-23T08:39:00.644Z,7.75
2018-06-23T08:41:28.830Z,8.58
2018-06-23T08:43:56.974Z,7.58
2018-06-23T08:46:25.150Z,6.53
2018-06-23T08:48:53.348Z,8.38
2018-06-23T08:51:21.735Z,10.30
2018-06-23T08:53:49.942Z,7.95
2018-06-23T08:56:18.446Z,9.93
2018-06-23T08:58:46.642Z,10.68
2018-06-23T09:01:14.777Z,10.28
2018-06-23T09:03:42.982Z,7.08
2018-06-23T09:06:11.145Z,9.13
2018-06-23T09:08:39.339Z,8.65
2018-06-23T09:11:07.533Z,7.50
2018-06-23T09:13:36.188Z,7.85
2018-06-23T09:16:04.372Z,6.58
2018-06-23T09:18:32.555Z,8.83
2018-06-23T09:21:00.759Z,8.45
2018-06-23T09:23:28.943Z,7.95
2018-06-23T09:25:57.146Z,8.38
2018-06-23T09:28:25.327Z,6.85
2018-06-23T09:30:53.469Z,7.47
2018-06-23T09:33:21.690Z,7.78
2018-06-23T09:35:49.843Z,5.22
2018-06-23T09:38:18.011Z,7.42
2018-06-23T09:40:46.503Z,8.55
2018-06-23T09:43:14.748Z,10.32
2018-06-23T09:45:42.939Z,10.10
2018-06-23T09:48:11.132Z,6.85
2018-06-23T09:50:39.346Z,7.95
2018-06-23T09:53:07.594Z,9.85
2018-06-23T09:55:36.044Z,9.55
2018-06-23T09:58:04.215Z,9.33
2018-06-23T10:00:32.456Z,9.15
2018-06-23T10:03:01.684Z,8.05
2018-06-23T10:05:30.105Z,7.90
2018-06-23T10:07:58.971Z,8.15
2018-06-23T10:10:27.446Z,9.13
2018-06-23T10:12:55.668Z,8.30
2018-06-23T10:15:23.866Z,6.12
2018-06-23T10:17:53.576Z,12.95
2018-06-23T10:20:21.894Z,9.23
2018-06-23T10:22:50.049Z,7.15
2018-06-23T10:25:18.211Z,12.95
2018-06-23T10:27:46.425Z,7.80
2018-06-23T10:30:14.613Z,9.30
2018-06-23T10:32:42.800Z,8.28
2018-06-23T10:35:11.068Z,7.10
2018-06-23T10:37:39.444Z,10.58
2018-06-23T10:40:07.683Z,6.28
2018-06-23T10:42:36.030Z,9.05
2018-06-23T10:45:04.271Z,8.90
2018-06-23T10:47:32.652Z,8.88
2018-06-23T10:50:00.722Z,8.43
2018-06-23T10:52:29.322Z,9.60
2018-06-23T10:54:57.715Z,8.78
2018-06-23T10:57:26.250Z,12.55
2018-06-23T10:59:54.473Z,10.68
2018-06-23T11:02:22.766Z,12.95
2018-06-23T11:04:51.027Z,11.75
2018-06-23T11:07:19.230Z,13.45
2018-06-23T11:09:47.464Z,8.40
2018-06-23T11:12:15.739Z,8.98
2018-06-23T11:14:43.931Z,6.45
2018-06-23T11:17:12.126Z,5.97
2018-06-23T11:19:40.346Z,8.63
2018-06-23T11:22:08.568Z,9.28
2018-06-23T11:24:36.923Z,9.48
2018-06-23T11:27:05.090Z,7.37
2018-06-23T11:29:33.290Z,6.33
2018-06-23T11:32:01.504Z,9.73
2018-06-23T11:34:29.741Z,15.55
2018-06-23T11:36:58.058Z,11.78
2018-06-23T11:39:26.213Z,20.00
2018-06-23T11:41:54.434Z,10.75
2018-06-23T11:44:22.634Z,10.18
2018-06-23T11:46:50.846Z,11.95
2018-06-23T11:49:19.029Z,13.35
2018-06-23T11:51:47.257Z,16.80
2018-06-23T11:54:15.571Z,27.45
2018-06-23T11:56:43.845Z,12.68
2018-06-23T11:59:12.046Z,7.87
2018-06-23T12:01:40.222Z,6.53
2018-06-23T12:04:08.437Z,9.18
2018-06-23T12:06:36.735Z,8.58
2018-06-23T12:09:07.408Z,13.70
2018-06-23T12:11:35.625Z,9.33
2018-06-23T12:14:04.030Z,10.05
2018-06-23T12:16:33.016Z,7.97
2018-06-23T12:19:01.206Z,7.37
2018-06-23T12:21:29.525Z,8.90
2018-06-23T12:23:57.728Z,13.70
2018-06-23T12:26:25.924Z,9.20
2018-06-23T12:28:54.125Z,6.30
2018-06-23T12:31:22.326Z,6.80
2018-06-23T12:33:50.485Z,13.03
2018-06-23T12:36:18.657Z,7.15
2018-06-23T12:38:46.848Z,9.85
2018-06-23T12:41:15.106Z,9.35
2018-06-23T12:43:43.300Z,9.48
2018-06-23T12:46:11.563Z,5.50
2018-06-23T12:48:39.749Z,9.43
2018-06-23T12:51:08.026Z,9.05
2018-06-23T12:53:36.266Z,6.55
2018-06-23T12:56:04.462Z,9.45
2018-06-23T12:58:32.661Z,7.53
2018-06-23T13:01:00.829Z,4.58
2018-06-23T13:03:28.989Z,7.85
2018-06-23T13:05:57.178Z,7.08
2018-06-23T13:08:25.702Z,8.28
2018-06-23T13:10:53.930Z,9.93
2018-06-23T13:13:22.136Z,9.30
2018-06-23T13:15:50.297Z,10.70
2018-06-23T13:18:18.489Z,8.23
2018-06-23T13:20:46.643Z,7.95
2018-06-23T13:23:14.846Z,5.47
2018-06-23T13:25:43.077Z,9.18
2018-06-23T13:28:12.154Z,7.10
2018-06-23T13:30:40.365Z,7.50
2018-06-23T13:33:08.590Z,6.70
2018-06-23T13:35:36.938Z,10.35
2018-06-23T13:38:05.110Z,8.25
2018-06-23T13:40:33.320Z,4.62
2018-06-23T13:43:01.594Z,6.78
2018-06-23T13:45:30.177Z,3.92
2018-06-23T13:47:58.430Z,5.60
2018-06-23T13:50:26.576Z,5.75
2018-06-23T13:52:54.758Z,11.83
2018-06-23T13:55:22.950Z,3.58
2018-06-23T13:57:51.185Z,6.58
2018-06-23T14:00:19.341Z,4.12
2018-06-23T14:02:47.570Z,1.20
2018-06-23T14:05:15.757Z,3.50
2018-06-23T14:07:43.962Z,3.02
2018-06-23T14:10:12.157Z,3.67
2018-06-23T14:12:40.330Z,2.45
2018-06-23T14:15:08.592Z,5.08
2018-06-23T14:17:36.821Z,3.55
2018-06-23T14:20:05.327Z,5.42
2018-06-23T14:22:33.804Z,5.30
2018-06-23T14:25:02.031Z,4.83
2018-06-23T14:27:30.293Z,4.60
2018-06-23T14:29:58.538Z,5.40
2018-06-23T14:32:26.725Z,3.20
2018-06-23T14:34:54.891Z,4.47
2018-06-23T14:37:23.027Z,4.12
2018-06-23T14:39:51.156Z,4.03
2018-06-23T14:42:19.308Z,4.40
2018-06-23T14:44:47.450Z,4.35
2018-06-23T14:47:16.226Z,2.85
2018-06-23T14:49:44.461Z,5.53
2018-06-23T14:52:12.654Z,4.08
2018-06-23T14:54:40.849Z,6.30
2018-06-23T14:57:09.002Z,4.53
2018-06-23T14:59:37.218Z,4.95
2018-06-23T15:02:05.393Z,4.95
2018-06-23T15:04:33.538Z,3.30
2018-06-23T15:07:01.699Z,4.55
2018-06-23T15:09:35.335Z,4.65
2018-06-23T15:12:09.032Z,4.12
2018-06-23T15:14:37.154Z,5.22
2018-06-23T15:17:05.375Z,8.38
2018-06-23T15:19:33.550Z,4.72
2018-06-23T15:22:01.711Z,4.03
2018-06-23T15:24:29.876Z,3.90
2018-06-23T15:26:58.050Z,5.08
2018-06-23T15:29:26.178Z,3.45
2018-06-23T15:31:54.313Z,2.90
2018-06-23T15:34:22.465Z,2.33
2018-06-23T15:36:50.609Z,4.65
2018-06-23T15:39:18.780Z,3.83
2018-06-23T15:41:46.921Z,6.08
2018-06-23T15:44:15.062Z,3.42
2018-06-23T15:46:43.226Z,3.62
2018-06-23T15:49:11.378Z,3.92
2018-06-23T15:51:39.765Z,4.33
2018-06-23T15:54:08.094Z,5.55
2018-06-23T15:56:36.289Z,3.33
2018-06-23T15:59:04.574Z,4.10
2018-06-23T16:01:32.744Z,5.37
2018-06-23T16:04:00.878Z,5.70
2018-06-23T16:06:29.054Z,5.92
2018-06-23T16:08:57.579Z,6.70
2018-06-23T16:11:25.814Z,3.42
2018-06-23T16:13:53.988Z,5.05
2018-06-23T16:16:22.186Z,6.35
2018-06-23T16:18:50.357Z,4.03
2018-06-23T16:21:18.594Z,6.58
2018-06-23T16:23:46.770Z,7.25
2018-06-23T16:26:14.954Z,5.92
2018-06-23T16:28:43.097Z,6.83
2018-06-23T16:31:11.293Z,2.33
2018-06-23T16:33:39.659Z,5.83
2018-06-23T16:36:08.023Z,4.83
2018-06-23T16:38:36.183Z,3.40
2018-06-23T16:41:04.373Z,4.58
2018-06-23T16:43:32.566Z,4.37
2018-06-23T16:46:00.770Z,2.87
2018-06-23T16:48:28.938Z,5.45
2018-06-23T16:50:58.574Z,4.72
2018-06-23T16:53:26.749Z,4.33
2018-06-23T16:55:54.957Z,2.92
2018-06-23T16:58:23.110Z,3.70
2018-06-23T17:00:51.285Z,6.33
2018-06-23T17:03:19.455Z,4.37
2018-06-23T17:05:47.674Z,5.20
2018-06-23T17:08:15.830Z,5.22
2018-06-23T17:10:44.000Z,3.72
2018-06-23T17:13:12.222Z,3.65
2018-06-23T17:15:40.426Z,3.47
2018-06-23T17:18:08.725Z,9.33
2018-06-23T17:20:36.926Z,4.20
2018-06-23T17:23:05.236Z,2.25
2018-06-23T17:25:33.495Z,4.92
2018-06-23T17:28:01.685Z,2.87
2018-06-23T17:30:29.862Z,2.75
2018-06-23T17:32:58.002Z,3.80
2018-06-23T17:35:26.187Z,4.53
2018-06-23T17:37:54.320Z,7.50
2018-06-23T17:40:22.485Z,2.37
2018-06-23T17:42:50.650Z,3.92
2018-06-23T17:45:18.830Z,4.95
2018-06-23T17:47:47.029Z,4.42
2018-06-23T17:50:15.207Z,3.85
2018-06-23T17:52:43.381Z,3.62
2018-06-23T17:55:11.535Z,5.65
2018-06-23T17:57:39.858Z,7.80
2018-06-23T18:00:08.434Z,7.05
2018-06-23T18:02:36.726Z,3.52
2018-06-23T18:05:05.154Z,4.53
2018-06-23T18:07:33.993Z,4.75
2018-06-23T18:10:02.322Z,3.75
2018-06-23T18:12:30.488Z,5.37
2018-06-23T18:14:58.693Z,2.98
2018-06-23T18:17:26.818Z,4.03
2018-06-23T18:19:54.969Z,4.03
2018-06-23T18:22:23.141Z,4.95
2018-06-23T18:24:51.294Z,5.28
2018-06-23T18:27:19.454Z,4.35
2018-06-23T18:29:47.587Z,4.67
2018-06-23T18:32:15.787Z,4.47
2018-06-23T18:34:43.954Z,4.08
2018-06-23T18:37:12.127Z,3.70
2018-06-23T18:39:40.322Z,2.98
2018-06-23T18:42:08.474Z,4.00
2018-06-23T18:44:36.678Z,4.60
2018-06-23T18:47:05.133Z,4.28
2018-06-23T18:49:33.286Z,4.15
2018-06-23T18:52:01.458Z,4.83
2018-06-23T18:54:29.657Z,4.25
2018-06-23T18:56:57.827Z,4.22
2018-06-23T18:59:26.322Z,3.75
2018-06-23T19:01:54.674Z,7.17
2018-06-23T19:04:22.842Z,4.20
2018-06-23T19:06:51.074Z,5.12
2018-06-23T19:09:20.117Z,4.15
2018-06-23T19:11:48.525Z,4.12
2018-06-23T19:14:16.746Z,3.17
2018-06-23T19:16:44.941Z,2.75
2018-06-23T19:19:13.169Z,6.87
2018-06-23T19:21:41.331Z,2.22
